sensor_id;sensor_type;location;lat;lon;timestamp;P1;durP1;ratioP1;P2;durP2;ratioP2
44116;SDS011;29781;49.480;8.512;2023-04-28T00:01:13;10.15;;;5.88;;
44116;SDS011;29781;49.480;8.512;2023-04-28T00:03:38;7.40;;;6.15;;
44116;SDS011;29781;49.480;8.512;2023-04-28T00:06:04;12.35;;;6.90;;
44116;SDS011;29781;49.480;8.512;2023-04-28T00:08:30;9.55;;;5.95;;
44116;SDS011;29781;49.480;8.512;2023-04-28T00:10:56;13.27;;;6.85;;
44116;SDS011;29781;49.480;8.512;2023-04-28T00:13:21;9.02;;;6.35;;
44116;SDS011;29781;49.480;8.512;2023-04-28T00:15:48;10.63;;;6.57;;
44116;SDS011;29781;49.480;8.512;2023-04-28T00:18:14;12.95;;;8.52;;
44116;SDS011;29781;49.480;8.512;2023-04-28T00:20:40;13.38;;;7.65;;
44116;SDS011;29781;49.480;8.512;2023-04-28T00:23:05;10.55;;;7.20;;
44116;SDS011;29781;49.480;8.512;2023-04-28T00:25:31;8.90;;;6.18;;
44116;SDS011;29781;49.480;8.512;2023-04-28T00:27:57;10.10;;;6.10;;
44116;SDS011;29781;49.480;8.512;2023-04-28T00:30:22;9.32;;;5.97;;
44116;SDS011;29781;49.480;8.512;2023-04-28T00:32:49;12.65;;;6.55;;
44116;SDS011;29781;49.480;8.512;2023-04-28T00:35:14;18.88;;;7.25;;
44116;SDS011;29781;49.480;8.512;2023-04-28T00:37:40;9.00;;;6.65;;
44116;SDS011;29781;49.480;8.512;2023-04-28T00:40:06;11.85;;;7.30;;
44116;SDS011;29781;49.480;8.512;2023-04-28T00:42:32;12.73;;;7.53;;
44116;SDS011;29781;49.480;8.512;2023-04-28T00:44:57;11.75;;;7.40;;
44116;SDS011;29781;49.480;8.512;2023-04-28T00:47:23;9.70;;;6.90;;
44116;SDS011;29781;49.480;8.512;2023-04-28T00:49:48;11.25;;;6.88;;
44116;SDS011;29781;49.480;8.512;2023-04-28T00:52:14;15.25;;;7.32;;
44116;SDS011;29781;49.480;8.512;2023-04-28T00:54:40;10.18;;;6.68;;
44116;SDS011;29781;49.480;8.512;2023-04-28T00:57:09;8.50;;;6.53;;
44116;SDS011;29781;49.480;8.512;2023-04-28T00:59:35;9.00;;;6.40;;
44116;SDS011;29781;49.480;8.512;2023-04-28T01:02:00;8.88;;;7.20;;
44116;SDS011;29781;49.480;8.512;2023-04-28T01:04:27;9.60;;;6.63;;
44116;SDS011;29781;49.480;8.512;2023-04-28T01:06:53;11.52;;;6.93;;
44116;SDS011;29781;49.480;8.512;2023-04-28T01:09:20;12.40;;;6.97;;
44116;SDS011;29781;49.480;8.512;2023-04-28T01:11:46;10.93;;;6.53;;
44116;SDS011;29781;49.480;8.512;2023-04-28T01:14:11;11.30;;;6.28;;
44116;SDS011;29781;49.480;8.512;2023-04-28T01:16:37;8.40;;;6.72;;
44116;SDS011;29781;49.480;8.512;2023-04-28T01:19:03;9.13;;;7.10;;
44116;SDS011;29781;49.480;8.512;2023-04-28T01:21:31;8.95;;;7.32;;
44116;SDS011;29781;49.480;8.512;2023-04-28T01:23:58;11.85;;;7.03;;
44116;SDS011;29781;49.480;8.512;2023-04-28T01:26:24;8.27;;;7.20;;
44116;SDS011;29781;49.480;8.512;2023-04-28T01:28:50;12.38;;;7.78;;
44116;SDS011;29781;49.480;8.512;2023-04-28T01:31:16;10.63;;;8.25;;
44116;SDS011;29781;49.480;8.512;2023-04-28T01:33:41;9.45;;;6.57;;
44116;SDS011;29781;49.480;8.512;2023-04-28T01:36:07;11.68;;;7.78;;
44116;SDS011;29781;49.480;8.512;2023-04-28T01:38:33;10.15;;;7.28;;
44116;SDS011;29781;49.480;8.512;2023-04-28T01:40:58;9.85;;;7.47;;
44116;SDS011;29781;49.480;8.512;2023-04-28T01:43:24;9.05;;;7.05;;
44116;SDS011;29781;49.480;8.512;2023-04-28T01:45:50;11.13;;;7.45;;
44116;SDS011;29781;49.480;8.512;2023-04-28T01:48:15;9.25;;;7.30;;
44116;SDS011;29781;49.480;8.512;2023-04-28T01:50:41;12.63;;;7.55;;
44116;SDS011;29781;49.480;8.512;2023-04-28T01:53:07;9.23;;;7.22;;
44116;SDS011;29781;49.480;8.512;2023-04-28T01:55:32;11.85;;;7.57;;
44116;SDS011;29781;49.480;8.512;2023-04-28T01:57:58;14.50;;;7.35;;
44116;SDS011;29781;49.480;8.512;2023-04-28T02:00:23;10.57;;;7.32;;
44116;SDS011;29781;49.480;8.512;2023-04-28T02:02:49;11.20;;;7.72;;
44116;SDS011;29781;49.480;8.512;2023-04-28T02:05:15;10.35;;;7.57;;
44116;SDS011;29781;49.480;8.512;2023-04-28T02:07:40;11.93;;;7.80;;
44116;SDS011;29781;49.480;8.512;2023-04-28T02:10:06;9.48;;;6.82;;
44116;SDS011;29781;49.480;8.512;2023-04-28T02:12:32;11.35;;;7.63;;
44116;SDS011;29781;49.480;8.512;2023-04-28T02:14:58;12.35;;;7.72;;
44116;SDS011;29781;49.480;8.512;2023-04-28T02:17:25;8.60;;;7.35;;
44116;SDS011;29781;49.480;8.512;2023-04-28T02:19:56;10.70;;;8.05;;
44116;SDS011;29781;49.480;8.512;2023-04-28T02:22:22;12.27;;;7.90;;
44116;SDS011;29781;49.480;8.512;2023-04-28T02:24:48;12.38;;;7.78;;
44116;SDS011;29781;49.480;8.512;2023-04-28T02:27:13;12.82;;;7.78;;
44116;SDS011;29781;49.480;8.512;2023-04-28T02:29:39;13.27;;;7.88;;
44116;SDS011;29781;49.480;8.512;2023-04-28T02:32:05;13.25;;;7.97;;
44116;SDS011;29781;49.480;8.512;2023-04-28T02:34:30;13.02;;;7.68;;
44116;SDS011;29781;49.480;8.512;2023-04-28T02:36:56;10.68;;;7.13;;
44116;SDS011;29781;49.480;8.512;2023-04-28T02:39:21;11.95;;;7.30;;
44116;SDS011;29781;49.480;8.512;2023-04-28T02:41:49;12.00;;;7.40;;
44116;SDS011;29781;49.480;8.512;2023-04-28T02:44:16;9.30;;;7.35;;
44116;SDS011;29781;49.480;8.512;2023-04-28T02:46:41;12.63;;;7.43;;
44116;SDS011;29781;49.480;8.512;2023-04-28T02:49:07;9.80;;;8.10;;
44116;SDS011;29781;49.480;8.512;2023-04-28T02:51:32;10.38;;;7.63;;
44116;SDS011;29781;49.480;8.512;2023-04-28T02:53:58;9.23;;;6.90;;
44116;SDS011;29781;49.480;8.512;2023-04-28T02:56:23;9.15;;;7.22;;
44116;SDS011;29781;49.480;8.512;2023-04-28T02:58:49;10.38;;;7.72;;
44116;SDS011;29781;49.480;8.512;2023-04-28T03:01:14;11.88;;;8.25;;
44116;SDS011;29781;49.480;8.512;2023-04-28T03:03:40;14.13;;;7.80;;
44116;SDS011;29781;49.480;8.512;2023-04-28T03:06:06;13.52;;;8.38;;
44116;SDS011;29781;49.480;8.512;2023-04-28T03:08:31;13.80;;;8.52;;
44116;SDS011;29781;49.480;8.512;2023-04-28T03:10:57;12.15;;;8.35;;
44116;SDS011;29781;49.480;8.512;2023-04-28T03:13:22;10.05;;;8.18;;
44116;SDS011;29781;49.480;8.512;2023-04-28T03:15:49;14.65;;;8.73;;
44116;SDS011;29781;49.480;8.512;2023-04-28T03:18:14;13.10;;;8.75;;
44116;SDS011;29781;49.480;8.512;2023-04-28T03:20:40;10.93;;;8.73;;
44116;SDS011;29781;49.480;8.512;2023-04-28T03:23:06;14.25;;;8.68;;
44116;SDS011;29781;49.480;8.512;2023-04-28T03:25:31;11.10;;;8.50;;
44116;SDS011;29781;49.480;8.512;2023-04-28T03:27:57;10.88;;;7.82;;
44116;SDS011;29781;49.480;8.512;2023-04-28T03:30:22;14.38;;;8.80;;
44116;SDS011;29781;49.480;8.512;2023-04-28T03:32:47;9.82;;;8.25;;
44116;SDS011;29781;49.480;8.512;2023-04-28T03:35:13;12.07;;;8.10;;
44116;SDS011;29781;49.480;8.512;2023-04-28T03:37:38;9.13;;;8.00;;
44116;SDS011;29781;49.480;8.512;2023-04-28T03:40:04;14.95;;;8.50;;
44116;SDS011;29781;49.480;8.512;2023-04-28T03:42:30;13.07;;;8.40;;
44116;SDS011;29781;49.480;8.512;2023-04-28T03:44:56;13.57;;;8.75;;
44116;SDS011;29781;49.480;8.512;2023-04-28T03:47:21;12.82;;;8.65;;
44116;SDS011;29781;49.480;8.512;2023-04-28T03:49:47;14.27;;;8.63;;
44116;SDS011;29781;49.480;8.512;2023-04-28T03:52:12;11.38;;;8.23;;
44116;SDS011;29781;49.480;8.512;2023-04-28T03:54:38;12.38;;;8.40;;
44116;SDS011;29781;49.480;8.512;2023-04-28T03:57:05;13.80;;;9.43;;
44116;SDS011;29781;49.480;8.512;2023-04-28T03:59:31;15.90;;;8.73;;
44116;SDS011;29781;49.480;8.512;2023-04-28T04:01:57;14.48;;;10.15;;
44116;SDS011;29781;49.480;8.512;2023-04-28T04:04:22;13.98;;;8.82;;
44116;SDS011;29781;49.480;8.512;2023-04-28T04:06:48;11.73;;;9.30;;
44116;SDS011;29781;49.480;8.512;2023-04-28T04:09:13;10.95;;;8.52;;
44116;SDS011;29781;49.480;8.512;2023-04-28T04:11:39;10.23;;;8.50;;
44116;SDS011;29781;49.480;8.512;2023-04-28T04:14:04;11.00;;;8.55;;
44116;SDS011;29781;49.480;8.512;2023-04-28T04:16:30;10.07;;;8.18;;
44116;SDS011;29781;49.480;8.512;2023-04-28T04:18:56;12.65;;;7.88;;
44116;SDS011;29781;49.480;8.512;2023-04-28T04:21:21;9.43;;;8.20;;
44116;SDS011;29781;49.480;8.512;2023-04-28T04:23:47;10.20;;;8.05;;
44116;SDS011;29781;49.480;8.512;2023-04-28T04:26:12;11.63;;;7.38;;
44116;SDS011;29781;49.480;8.512;2023-04-28T04:28:38;9.55;;;7.55;;
44116;SDS011;29781;49.480;8.512;2023-04-28T04:31:03;9.38;;;7.43;;
44116;SDS011;29781;49.480;8.512;2023-04-28T04:33:29;8.90;;;7.50;;
44116;SDS011;29781;49.480;8.512;2023-04-28T04:35:54;11.73;;;7.75;;
44116;SDS011;29781;49.480;8.512;2023-04-28T04:38:20;10.30;;;7.25;;
44116;SDS011;29781;49.480;8.512;2023-04-28T04:40:46;9.95;;;7.45;;
44116;SDS011;29781;49.480;8.512;2023-04-28T04:43:11;8.98;;;6.93;;
44116;SDS011;29781;49.480;8.512;2023-04-28T04:45:37;10.27;;;7.35;;
44116;SDS011;29781;49.480;8.512;2023-04-28T04:48:03;13.00;;;8.07;;
44116;SDS011;29781;49.480;8.512;2023-04-28T04:50:29;12.43;;;7.95;;
44116;SDS011;29781;49.480;8.512;2023-04-28T04:52:54;9.48;;;6.57;;
44116;SDS011;29781;49.480;8.512;2023-04-28T04:55:21;11.07;;;7.72;;
44116;SDS011;29781;49.480;8.512;2023-04-28T04:57:46;10.60;;;7.57;;
44116;SDS011;29781;49.480;8.512;2023-04-28T05:00:12;9.65;;;7.85;;
44116;SDS011;29781;49.480;8.512;2023-04-28T05:02:38;10.20;;;7.80;;
44116;SDS011;29781;49.480;8.512;2023-04-28T05:05:04;8.40;;;7.30;;
44116;SDS011;29781;49.480;8.512;2023-04-28T05:07:30;8.95;;;7.47;;
44116;SDS011;29781;49.480;8.512;2023-04-28T05:09:55;11.27;;;7.57;;
44116;SDS011;29781;49.480;8.512;2023-04-28T05:12:21;12.80;;;7.82;;
44116;SDS011;29781;49.480;8.512;2023-04-28T05:14:46;11.77;;;7.85;;
44116;SDS011;29781;49.480;8.512;2023-04-28T05:17:12;12.32;;;8.50;;
44116;SDS011;29781;49.480;8.512;2023-04-28T05:19:37;13.10;;;8.70;;
44116;SDS011;29781;49.480;8.512;2023-04-28T05:22:03;13.75;;;9.00;;
44116;SDS011;29781;49.480;8.512;2023-04-28T05:24:28;12.45;;;9.10;;
44116;SDS011;29781;49.480;8.512;2023-04-28T05:26:55;12.63;;;8.68;;
44116;SDS011;29781;49.480;8.512;2023-04-28T05:29:25;14.90;;;9.07;;
44116;SDS011;29781;49.480;8.512;2023-04-28T05:31:51;9.65;;;8.65;;
44116;SDS011;29781;49.480;8.512;2023-04-28T05:34:16;10.50;;;8.85;;
44116;SDS011;29781;49.480;8.512;2023-04-28T05:36:43;12.10;;;9.10;;
44116;SDS011;29781;49.480;8.512;2023-04-28T05:39:08;13.32;;;9.10;;
44116;SDS011;29781;49.480;8.512;2023-04-28T05:41:34;13.70;;;9.73;;
44116;SDS011;29781;49.480;8.512;2023-04-28T05:44:03;11.95;;;9.07;;
44116;SDS011;29781;49.480;8.512;2023-04-28T05:46:29;11.88;;;9.15;;
44116;SDS011;29781;49.480;8.512;2023-04-28T05:48:55;13.73;;;9.55;;
44116;SDS011;29781;49.480;8.512;2023-04-28T05:51:20;16.55;;;9.75;;
44116;SDS011;29781;49.480;8.512;2023-04-28T05:53:46;14.15;;;10.80;;
44116;SDS011;29781;49.480;8.512;2023-04-28T05:56:13;19.58;;;10.68;;
44116;SDS011;29781;49.480;8.512;2023-04-28T05:58:39;20.33;;;11.02;;
44116;SDS011;29781;49.480;8.512;2023-04-28T06:01:04;15.75;;;10.30;;
44116;SDS011;29781;49.480;8.512;2023-04-28T06:03:30;17.92;;;10.85;;
44116;SDS011;29781;49.480;8.512;2023-04-28T06:05:56;15.57;;;11.45;;
44116;SDS011;29781;49.480;8.512;2023-04-28T06:08:21;12.75;;;10.27;;
44116;SDS011;29781;49.480;8.512;2023-04-28T06:10:47;12.73;;;9.88;;
44116;SDS011;29781;49.480;8.512;2023-04-28T06:13:12;12.75;;;10.00;;
44116;SDS011;29781;49.480;8.512;2023-04-28T06:15:38;14.52;;;11.02;;
44116;SDS011;29781;49.480;8.512;2023-04-28T06:18:03;22.35;;;12.15;;
44116;SDS011;29781;49.480;8.512;2023-04-28T06:20:33;19.52;;;12.48;;
44116;SDS011;29781;49.480;8.512;2023-04-28T06:22:59;18.33;;;13.18;;
44116;SDS011;29781;49.480;8.512;2023-04-28T06:25:25;24.05;;;13.70;;
44116;SDS011;29781;49.480;8.512;2023-04-28T06:27:51;20.13;;;12.63;;
44116;SDS011;29781;49.480;8.512;2023-04-28T06:30:17;17.05;;;13.15;;
44116;SDS011;29781;49.480;8.512;2023-04-28T06:32:44;18.92;;;12.95;;
44116;SDS011;29781;49.480;8.512;2023-04-28T06:35:09;22.20;;;13.20;;
44116;SDS011;29781;49.480;8.512;2023-04-28T06:37:35;24.42;;;13.55;;
44116;SDS011;29781;49.480;8.512;2023-04-28T06:40:00;19.92;;;13.18;;
44116;SDS011;29781;49.480;8.512;2023-04-28T06:42:26;18.48;;;13.60;;
44116;SDS011;29781;49.480;8.512;2023-04-28T06:44:52;19.50;;;14.18;;
44116;SDS011;29781;49.480;8.512;2023-04-28T06:47:17;23.02;;;14.18;;
44116;SDS011;29781;49.480;8.512;2023-04-28T06:49:42;20.33;;;15.30;;
44116;SDS011;29781;49.480;8.512;2023-04-28T06:52:09;22.73;;;15.23;;
44116;SDS011;29781;49.480;8.512;2023-04-28T06:54:35;20.30;;;14.43;;
44116;SDS011;29781;49.480;8.512;2023-04-28T06:57:02;18.23;;;14.90;;
44116;SDS011;29781;49.480;8.512;2023-04-28T06:59:28;21.65;;;14.43;;
44116;SDS011;29781;49.480;8.512;2023-04-28T07:01:53;19.98;;;14.32;;
44116;SDS011;29781;49.480;8.512;2023-04-28T07:04:19;24.25;;;15.50;;
44116;SDS011;29781;49.480;8.512;2023-04-28T07:06:45;23.63;;;14.85;;
44116;SDS011;29781;49.480;8.512;2023-04-28T07:09:10;24.95;;;15.20;;
44116;SDS011;29781;49.480;8.512;2023-04-28T07:11:36;22.35;;;15.23;;
44116;SDS011;29781;49.480;8.512;2023-04-28T07:14:02;27.80;;;15.73;;
44116;SDS011;29781;49.480;8.512;2023-04-28T07:16:27;21.17;;;16.08;;
44116;SDS011;29781;49.480;8.512;2023-04-28T07:18:53;21.83;;;16.98;;
44116;SDS011;29781;49.480;8.512;2023-04-28T07:21:18;20.55;;;15.20;;
44116;SDS011;29781;49.480;8.512;2023-04-28T07:23:45;17.52;;;13.95;;
44116;SDS011;29781;49.480;8.512;2023-04-28T07:26:11;17.73;;;13.73;;
44116;SDS011;29781;49.480;8.512;2023-04-28T07:28:40;21.08;;;15.30;;
44116;SDS011;29781;49.480;8.512;2023-04-28T07:31:06;18.95;;;14.68;;
44116;SDS011;29781;49.480;8.512;2023-04-28T07:33:31;19.35;;;15.57;;
44116;SDS011;29781;49.480;8.512;2023-04-28T07:35:57;21.70;;;14.88;;
44116;SDS011;29781;49.480;8.512;2023-04-28T07:38:22;17.52;;;14.73;;
44116;SDS011;29781;49.480;8.512;2023-04-28T07:40:48;19.73;;;15.80;;
44116;SDS011;29781;49.480;8.512;2023-04-28T07:43:13;20.40;;;15.98;;
44116;SDS011;29781;49.480;8.512;2023-04-28T07:45:39;23.58;;;15.27;;
44116;SDS011;29781;49.480;8.512;2023-04-28T07:48:05;20.60;;;15.57;;
44116;SDS011;29781;49.480;8.512;2023-04-28T07:50:31;23.45;;;15.45;;
44116;SDS011;29781;49.480;8.512;2023-04-28T07:52:57;19.25;;;15.45;;
44116;SDS011;29781;49.480;8.512;2023-04-28T07:55:23;21.67;;;16.38;;
44116;SDS011;29781;49.480;8.512;2023-04-28T07:57:48;17.23;;;14.07;;
44116;SDS011;29781;49.480;8.512;2023-04-28T08:00:14;18.40;;;14.82;;
44116;SDS011;29781;49.480;8.512;2023-04-28T08:02:40;19.20;;;14.93;;
44116;SDS011;29781;49.480;8.512;2023-04-28T08:05:05;16.67;;;14.50;;
44116;SDS011;29781;49.480;8.512;2023-04-28T08:07:33;19.08;;;15.00;;
44116;SDS011;29781;49.480;8.512;2023-04-28T08:09:59;16.75;;;14.50;;
44116;SDS011;29781;49.480;8.512;2023-04-28T08:12:25;19.55;;;15.27;;
44116;SDS011;29781;49.480;8.512;2023-04-28T08:14:51;18.88;;;14.93;;
44116;SDS011;29781;49.480;8.512;2023-04-28T08:17:16;17.52;;;15.30;;
44116;SDS011;29781;49.480;8.512;2023-04-28T08:19:42;19.02;;;14.52;;
44116;SDS011;29781;49.480;8.512;2023-04-28T08:22:10;18.13;;;15.40;;
44116;SDS011;29781;49.480;8.512;2023-04-28T08:24:36;20.60;;;15.70;;
44116;SDS011;29781;49.480;8.512;2023-04-28T08:27:01;18.48;;;16.05;;
44116;SDS011;29781;49.480;8.512;2023-04-28T08:29:28;19.15;;;15.27;;
44116;SDS011;29781;49.480;8.512;2023-04-28T08:31:54;20.58;;;16.95;;
44116;SDS011;29781;49.480;8.512;2023-04-28T08:34:20;18.90;;;16.30;;
44116;SDS011;29781;49.480;8.512;2023-04-28T08:36:46;20.38;;;15.23;;
44116;SDS011;29781;49.480;8.512;2023-04-28T08:39:11;19.80;;;15.07;;
44116;SDS011;29781;49.480;8.512;2023-04-28T08:41:37;17.75;;;14.75;;
44116;SDS011;29781;49.480;8.512;2023-04-28T08:44:07;17.63;;;13.93;;
44116;SDS011;29781;49.480;8.512;2023-04-28T08:46:34;16.30;;;14.60;;
44116;SDS011;29781;49.480;8.512;2023-04-28T08:49:01;16.75;;;13.85;;
44116;SDS011;29781;49.480;8.512;2023-04-28T08:51:33;16.77;;;13.63;;
44116;SDS011;29781;49.480;8.512;2023-04-28T08:54:02;16.33;;;14.00;;
44116;SDS011;29781;49.480;8.512;2023-04-28T08:56:31;15.93;;;13.85;;
44116;SDS011;29781;49.480;8.512;2023-04-28T08:59:02;15.80;;;13.90;;
44116;SDS011;29781;49.480;8.512;2023-04-28T09:01:29;17.67;;;14.75;;
44116;SDS011;29781;49.480;8.512;2023-04-28T09:03:59;16.10;;;14.50;;
44116;SDS011;29781;49.480;8.512;2023-04-28T09:06:26;19.75;;;15.57;;
44116;SDS011;29781;49.480;8.512;2023-04-28T09:08:55;15.75;;;14.15;;
44116;SDS011;29781;49.480;8.512;2023-04-28T09:11:21;16.10;;;14.35;;
44116;SDS011;29781;49.480;8.512;2023-04-28T09:13:47;19.50;;;14.10;;
44116;SDS011;29781;49.480;8.512;2023-04-28T09:16:13;15.05;;;13.55;;
44116;SDS011;29781;49.480;8.512;2023-04-28T09:18:38;15.75;;;14.07;;
44116;SDS011;29781;49.480;8.512;2023-04-28T09:21:08;17.58;;;12.60;;
44116;SDS011;29781;49.480;8.512;2023-04-28T09:23:35;14.65;;;12.63;;
44116;SDS011;29781;49.480;8.512;2023-04-28T09:26:14;13.88;;;12.43;;
44116;SDS011;29781;49.480;8.512;2023-04-28T09:28:40;14.35;;;12.85;;
44116;SDS011;29781;49.480;8.512;2023-04-28T09:31:05;16.08;;;13.40;;
44116;SDS011;29781;49.480;8.512;2023-04-28T09:33:56;15.05;;;12.05;;
44116;SDS011;29781;49.480;8.512;2023-04-28T09:36:28;13.57;;;12.18;;
44116;SDS011;29781;49.480;8.512;2023-04-28T09:38:57;13.15;;;11.85;;
44116;SDS011;29781;49.480;8.512;2023-04-28T09:41:33;13.82;;;12.43;;
44116;SDS011;29781;49.480;8.512;2023-04-28T09:44:09;14.77;;;12.02;;
44116;SDS011;29781;49.480;8.512;2023-04-28T09:46:40;12.55;;;11.25;;
44116;SDS011;29781;49.480;8.512;2023-04-28T09:49:10;10.73;;;9.63;;
44116;SDS011;29781;49.480;8.512;2023-04-28T09:51:37;11.23;;;10.13;;
44116;SDS011;29781;49.480;8.512;2023-04-28T09:54:03;11.18;;;9.95;;
44116;SDS011;29781;49.480;8.512;2023-04-28T09:56:30;11.57;;;10.48;;
44116;SDS011;29781;49.480;8.512;2023-04-28T09:58:57;12.23;;;10.13;;
44116;SDS011;29781;49.480;8.512;2023-04-28T10:01:24;12.18;;;10.98;;
44116;SDS011;29781;49.480;8.512;2023-04-28T10:03:52;12.23;;;10.98;;
44116;SDS011;29781;49.480;8.512;2023-04-28T10:06:20;14.82;;;10.57;;
44116;SDS011;29781;49.480;8.512;2023-04-28T10:08:46;11.60;;;10.43;;
44116;SDS011;29781;49.480;8.512;2023-04-28T10:11:13;10.60;;;9.60;;
44116;SDS011;29781;49.480;8.512;2023-04-28T10:13:42;12.23;;;10.05;;
44116;SDS011;29781;49.480;8.512;2023-04-28T10:16:11;11.15;;;10.02;;
44116;SDS011;29781;49.480;8.512;2023-04-28T10:18:38;9.63;;;7.05;;
44116;SDS011;29781;49.480;8.512;2023-04-28T10:21:04;10.55;;;9.55;;
44116;SDS011;29781;49.480;8.512;2023-04-28T10:29:34;8.07;;;7.28;;
44116;SDS011;29781;49.480;8.512;2023-04-28T10:34:42;9.70;;;8.80;;
44116;SDS011;29781;49.480;8.512;2023-04-28T10:37:08;10.90;;;9.80;;
44116;SDS011;29781;49.480;8.512;2023-04-28T10:39:34;11.93;;;10.00;;
44116;SDS011;29781;49.480;8.512;2023-04-28T10:41:59;11.05;;;9.55;;
44116;SDS011;29781;49.480;8.512;2023-04-28T10:47:04;11.40;;;10.10;;
44116;SDS011;29781;49.480;8.512;2023-04-28T11:00:42;10.88;;;9.82;;
44116;SDS011;29781;49.480;8.512;2023-04-28T11:03:15;15.00;;;9.90;;
44116;SDS011;29781;49.480;8.512;2023-04-28T11:08:56;10.80;;;9.80;;
44116;SDS011;29781;49.480;8.512;2023-04-28T11:19:21;11.15;;;10.05;;
44116;SDS011;29781;49.480;8.512;2023-04-28T11:21:52;10.93;;;9.90;;
44116;SDS011;29781;49.480;8.512;2023-04-28T11:24:20;10.45;;;9.50;;
44116;SDS011;29781;49.480;8.512;2023-04-28T11:26:46;10.65;;;9.70;;
44116;SDS011;29781;49.480;8.512;2023-04-28T11:29:12;10.98;;;9.45;;
44116;SDS011;29781;49.480;8.512;2023-04-28T11:31:39;10.40;;;9.30;;
44116;SDS011;29781;49.480;8.512;2023-04-28T11:34:06;12.70;;;11.15;;
44116;SDS011;29781;49.480;8.512;2023-04-28T11:36:44;12.23;;;10.50;;
44116;SDS011;29781;49.480;8.512;2023-04-28T11:39:10;11.68;;;10.50;;
44116;SDS011;29781;49.480;8.512;2023-04-28T11:41:37;13.00;;;9.80;;
44116;SDS011;29781;49.480;8.512;2023-04-28T11:44:11;11.95;;;10.57;;
44116;SDS011;29781;49.480;8.512;2023-04-28T11:46:47;13.57;;;11.00;;
44116;SDS011;29781;49.480;8.512;2023-04-28T11:49:15;22.98;;;11.10;;
44116;SDS011;29781;49.480;8.512;2023-04-28T11:51:41;19.75;;;13.15;;
44116;SDS011;29781;49.480;8.512;2023-04-28T11:54:09;12.15;;;10.65;;
44116;SDS011;29781;49.480;8.512;2023-04-28T11:56:42;20.27;;;11.95;;
44116;SDS011;29781;49.480;8.512;2023-04-28T11:59:09;17.73;;;12.63;;
44116;SDS011;29781;49.480;8.512;2023-04-28T12:04:25;13.68;;;10.93;;
44116;SDS011;29781;49.480;8.512;2023-04-28T12:07:05;13.68;;;11.50;;
44116;SDS011;29781;49.480;8.512;2023-04-28T12:09:45;12.90;;;11.27;;
44116;SDS011;29781;49.480;8.512;2023-04-28T12:12:28;11.82;;;10.18;;
44116;SDS011;29781;49.480;8.512;2023-04-28T12:14:58;14.10;;;11.07;;
44116;SDS011;29781;49.480;8.512;2023-04-28T12:19:52;11.75;;;8.35;;
44116;SDS011;29781;49.480;8.512;2023-04-28T12:22:22;17.38;;;9.18;;
44116;SDS011;29781;49.480;8.512;2023-04-28T12:25:04;14.75;;;9.15;;
44116;SDS011;29781;49.480;8.512;2023-04-28T12:27:32;10.65;;;9.00;;
44116;SDS011;29781;49.480;8.512;2023-04-28T12:29:58;9.98;;;7.15;;
44116;SDS011;29781;49.480;8.512;2023-04-28T12:32:36;13.52;;;7.25;;
44116;SDS011;29781;49.480;8.512;2023-04-28T12:35:12;9.73;;;8.73;;
44116;SDS011;29781;49.480;8.512;2023-04-28T12:37:38;10.20;;;8.00;;
44116;SDS011;29781;49.480;8.512;2023-04-28T12:40:05;7.88;;;6.00;;
44116;SDS011;29781;49.480;8.512;2023-04-28T12:42:32;7.18;;;5.53;;
44116;SDS011;29781;49.480;8.512;2023-04-28T12:44:57;7.72;;;5.45;;
44116;SDS011;29781;49.480;8.512;2023-04-28T12:47:23;6.97;;;5.75;;
44116;SDS011;29781;49.480;8.512;2023-04-28T12:49:48;11.48;;;5.90;;
44116;SDS011;29781;49.480;8.512;2023-04-28T12:52:17;7.40;;;5.28;;
44116;SDS011;29781;49.480;8.512;2023-04-28T12:54:43;6.32;;;5.65;;
44116;SDS011;29781;49.480;8.512;2023-04-28T12:57:11;8.20;;;6.35;;
44116;SDS011;29781;49.480;8.512;2023-04-28T12:59:41;8.10;;;5.80;;
44116;SDS011;29781;49.480;8.512;2023-04-28T13:02:07;6.55;;;5.28;;
44116;SDS011;29781;49.480;8.512;2023-04-28T13:04:32;7.03;;;5.70;;
44116;SDS011;29781;49.480;8.512;2023-04-28T13:06:58;7.82;;;5.05;;
44116;SDS011;29781;49.480;8.512;2023-04-28T13:09:24;7.00;;;5.20;;
44116;SDS011;29781;49.480;8.512;2023-04-28T13:11:51;8.25;;;5.40;;
44116;SDS011;29781;49.480;8.512;2023-04-28T13:14:17;5.90;;;5.32;;
44116;SDS011;29781;49.480;8.512;2023-04-28T13:16:46;8.07;;;6.20;;
44116;SDS011;29781;49.480;8.512;2023-04-28T13:19:12;7.00;;;6.20;;
44116;SDS011;29781;49.480;8.512;2023-04-28T13:21:41;6.70;;;5.88;;
44116;SDS011;29781;49.480;8.512;2023-04-28T13:24:08;8.27;;;6.63;;
44116;SDS011;29781;49.480;8.512;2023-04-28T13:26:34;10.13;;;7.65;;
44116;SDS011;29781;49.480;8.512;2023-04-28T13:29:00;8.80;;;7.88;;
44116;SDS011;29781;49.480;8.512;2023-04-28T13:31:26;11.00;;;7.30;;
44116;SDS011;29781;49.480;8.512;2023-04-28T13:33:53;7.95;;;6.90;;
44116;SDS011;29781;49.480;8.512;2023-04-28T13:36:19;8.27;;;7.38;;
44116;SDS011;29781;49.480;8.512;2023-04-28T13:38:45;8.18;;;7.18;;
44116;SDS011;29781;49.480;8.512;2023-04-28T13:41:13;8.40;;;7.60;;
44116;SDS011;29781;49.480;8.512;2023-04-28T13:43:39;7.00;;;6.00;;
44116;SDS011;29781;49.480;8.512;2023-04-28T13:46:05;11.65;;;5.78;;
44116;SDS011;29781;49.480;8.512;2023-04-28T13:48:32;7.85;;;7.10;;
44116;SDS011;29781;49.480;8.512;2023-04-28T13:51:00;8.13;;;7.20;;
44116;SDS011;29781;49.480;8.512;2023-04-28T13:53:25;7.88;;;6.57;;
44116;SDS011;29781;49.480;8.512;2023-04-28T13:55:51;7.10;;;6.40;;
44116;SDS011;29781;49.480;8.512;2023-04-28T13:58:17;5.28;;;4.80;;
44116;SDS011;29781;49.480;8.512;2023-04-28T14:00:44;5.72;;;5.22;;
44116;SDS011;29781;49.480;8.512;2023-04-28T14:03:09;5.30;;;4.60;;
44116;SDS011;29781;49.480;8.512;2023-04-28T14:05:35;6.18;;;5.20;;
44116;SDS011;29781;49.480;8.512;2023-04-28T14:08:01;6.63;;;5.03;;
44116;SDS011;29781;49.480;8.512;2023-04-28T14:10:27;8.48;;;5.38;;
44116;SDS011;29781;49.480;8.512;2023-04-28T14:12:53;6.35;;;5.18;;
44116;SDS011;29781;49.480;8.512;2023-04-28T14:15:19;7.18;;;5.25;;
44116;SDS011;29781;49.480;8.512;2023-04-28T14:17:45;5.20;;;4.35;;
44116;SDS011;29781;49.480;8.512;2023-04-28T14:20:12;5.15;;;4.50;;
44116;SDS011;29781;49.480;8.512;2023-04-28T14:22:38;5.32;;;4.82;;
44116;SDS011;29781;49.480;8.512;2023-04-28T14:25:04;5.07;;;4.57;;
44116;SDS011;29781;49.480;8.512;2023-04-28T14:27:30;5.75;;;5.25;;
44116;SDS011;29781;49.480;8.512;2023-04-28T14:29:57;5.68;;;5.03;;
44116;SDS011;29781;49.480;8.512;2023-04-28T14:32:22;7.75;;;5.95;;
44116;SDS011;29781;49.480;8.512;2023-04-28T14:34:48;5.97;;;5.35;;
44116;SDS011;29781;49.480;8.512;2023-04-28T14:37:15;6.85;;;5.30;;
44116;SDS011;29781;49.480;8.512;2023-04-28T14:39:42;10.23;;;6.13;;
44116;SDS011;29781;49.480;8.512;2023-04-28T14:42:08;13.23;;;6.63;;
44116;SDS011;29781;49.480;8.512;2023-04-28T14:44:33;11.65;;;6.22;;
44116;SDS011;29781;49.480;8.512;2023-04-28T14:46:59;8.20;;;5.32;;
44116;SDS011;29781;49.480;8.512;2023-04-28T14:49:26;7.18;;;4.88;;
44116;SDS011;29781;49.480;8.512;2023-04-28T14:51:52;13.70;;;5.63;;
44116;SDS011;29781;49.480;8.512;2023-04-28T14:54:18;9.70;;;4.82;;
44116;SDS011;29781;49.480;8.512;2023-04-28T14:56:43;10.10;;;4.75;;
44116;SDS011;29781;49.480;8.512;2023-04-28T14:59:09;10.43;;;5.70;;
44116;SDS011;29781;49.480;8.512;2023-04-28T15:01:35;17.42;;;5.88;;
44116;SDS011;29781;49.480;8.512;2023-04-28T15:04:01;8.95;;;4.95;;
44116;SDS011;29781;49.480;8.512;2023-04-28T15:06:27;9.15;;;5.20;;
44116;SDS011;29781;49.480;8.512;2023-04-28T15:08:53;6.93;;;4.97;;